Lake Suzy, Florida
Current Conditions -  °F | °C
As of 8:53 AM on Friday 24 Oct 2014 (Local Time) from KPGD Reporting Station
Broken Clouds Broken Clouds  
Wind Chill: 66°   Ceiling: 4300
Heat Index: 66°   Visibility: 10mi
Dew Point: 59°   Wind: 12mph
Humidity: 78%   Direction: 30°NNE
Pressure: 29.97"   Gusts: NA
Location:  27.0717°N, 81.9802°W
Report Text: KPGD 241253Z 03010KT 10SM BKN043 19/15 A2997 RMK AO2 SLP147 T01890150
Loading
Personal Weather Stations






























Interactive Weather Map New forecast layout! Learn more

10-Day Weather Forecast

Advertisements
Track Severe Weather on mobile